Time,TemperatureF,DewpointF,PressureIn,WindDirection,WindDirectionDegrees,WindSpeedMPH,WindSpeedGustMPH,Humidity,HourlyPrecipIn,Conditions,Clouds,dailyrainin,SoftwareType,DateUTC
2013-12-24 00:13:00,26.8,24.0,30.23,NNW,343,0.0,3.0,88,0.00,,,0.00,weatherlink.com 1.10,2013-12-24 05:13:00,
2013-12-24 00:28:00,26.8,24.0,30.23,NNW,341,1.0,6.0,89,0.00,,,0.00,weatherlink.com 1.10,2013-12-24 05:28:00,
2013-12-24 00:43:00,26.7,24.0,30.24,NW,308,0.0,4.0,89,0.00,,,0.00,weatherlink.com 1.10,2013-12-24 05:43:00,
2013-12-24 00:58:00,26.2,24.0,30.24,NW,315,0.0,3.0,91,0.00,,,0.00,weatherlink.com 1.10,2013-12-24 05:58:00,
2013-12-24 01:13:00,25.9,24.0,30.24,NW,316,0.0,3.0,91,0.00,,,0.00,weatherlink.com 1.10,2013-12-24 06:13:00,
2013-12-24 01:28:00,25.7,23.0,30.24,NW,323,1.0,4.0,90,0.00,,,0.00,weatherlink.com 1.10,2013-12-24 06:28:00,
2013-12-24 01:43:00,25.7,23.0,30.24,NW,325,0.0,3.0,90,0.00,,,0.00,weatherlink.com 1.10,2013-12-24 06:43:00,
2013-12-24 01:58:00,25.5,23.0,30.25,NW,306,0.0,1.0,90,0.00,,,0.00,weatherlink.com 1.10,2013-12-24 06:58:00,
2013-12-24 02:13:00,25.3,22.0,30.25,NW,313,2.0,4.0,87,0.00,,,0.00,weatherlink.com 1.10,2013-12-24 07:13:00,
2013-12-24 02:28:00,25.3,21.0,30.25,WNW,298,0.0,2.0,84,0.00,,,0.00,weatherlink.com 1.10,2013-12-24 07:28:00,
2013-12-24 02:43:00,25.2,21.0,30.25,WNW,297,0.0,1.0,85,0.00,,,0.00,weatherlink.com 1.10,2013-12-24 07:43:00,
2013-12-24 02:58:00,24.9,22.0,30.25,WNW,298,0.0,1.0,89,0.00,,,0.00,weatherlink.com 1.10,2013-12-24 07:58:00,
2013-12-24 03:13:00,24.4,22.0,30.24,WNW,298,0.0,1.0,91,0.00,,,0.00,weatherlink.com 1.10,2013-12-24 08:13:00,
2013-12-24 03:28:00,24.0,22.0,30.24,WNW,298,0.0,1.0,91,0.00,,,0.00,weatherlink.com 1.10,2013-12-24 08:28:00,
2013-12-24 03:43:00,23.8,22.0,30.23,WNW,298,0.0,1.0,92,0.00,,,0.00,weatherlink.com 1.10,2013-12-24 08:43:00,
2013-12-24 03:58:00,23.8,22.0,30.23,WNW,298,0.0,0.0,92,0.00,,,0.00,weatherlink.com 1.10,2013-12-24 08:58:00,
2013-12-24 04:13:00,23.9,22.0,30.22,WNW,298,0.0,0.0,92,0.00,,,0.00,weatherlink.com 1.10,2013-12-24 09:13:00,
2013-12-24 04:28:00,24.0,22.0,30.22,North,6,0.0,1.0,92,0.00,,,0.00,weatherlink.com 1.10,2013-12-24 09:28:00,
2013-12-24 04:43:00,23.9,22.0,30.22,North,5,0.0,0.0,92,0.00,,,0.00,weatherlink.com 1.10,2013-12-24 09:43:00,
2013-12-24 04:58:00,23.8,22.0,30.21,East,81,0.0,2.0,92,0.00,,,0.00,weatherlink.com 1.10,2013-12-24 09:58:00,
2013-12-24 05:13:00,23.5,22.0,30.21,ENE,64,0.0,1.0,92,0.00,,,0.00,weatherlink.com 1.10,2013-12-24 10:13:00,
2013-12-24 05:28:00,23.0,21.0,30.21,ENE,70,0.0,0.0,92,0.00,,,0.00,weatherlink.com 1.10,2013-12-24 10:28:00,
2013-12-24 05:43:00,22.6,21.0,30.21,ENE,69,0.0,1.0,93,0.00,,,0.00,weatherlink.com 1.10,2013-12-24 10:43:00,
2013-12-24 05:58:00,22.9,21.0,30.21,ENE,69,0.0,1.0,93,0.00,,,0.00,weatherlink.com 1.10,2013-12-24 10:58:00,
2013-12-24 06:13:00,22.8,21.0,30.21,NE,47,1.0,2.0,93,0.00,,,0.00,weatherlink.com 1.10,2013-12-24 11:13:00,
2013-12-24 06:28:00,22.6,21.0,30.21,East,79,0.0,2.0,93,0.00,,,0.00,weatherlink.com 1.10,2013-12-24 11:28:00,
2013-12-24 06:43:00,22.5,21.0,30.20,ENE,75,0.0,2.0,93,0.00,,,0.00,weatherlink.com 1.10,2013-12-24 11:43:00,
2013-12-24 06:58:00,22.4,21.0,30.21,NE,51,0.0,2.0,93,0.00,,,0.00,weatherlink.com 1.10,2013-12-24 11:58:00,
2013-12-24 07:13:00,22.4,21.0,30.20,ENE,62,0.0,1.0,93,0.00,,,0.00,weatherlink.com 1.10,2013-12-24 12:13:00,
2013-12-24 07:28:00,22.4,21.0,30.21,SSE,168,0.0,0.0,93,0.00,,,0.00,weatherlink.com 1.10,2013-12-24 12:28:00,
2013-12-24 07:43:00,22.4,21.0,30.21,SSE,168,0.0,1.0,92,0.00,,,0.00,weatherlink.com 1.10,2013-12-24 12:43:00,
2013-12-24 07:58:00,22.5,21.0,30.20,East,92,1.0,1.0,93,0.00,,,0.00,weatherlink.com 1.10,2013-12-24 12:58:00,
2013-12-24 08:13:00,22.7,21.0,30.21,NNE,25,0.0,0.0,93,0.00,,,0.00,weatherlink.com 1.10,2013-12-24 13:13:00,
2013-12-24 08:28:00,22.8,21.0,30.21,NE,45,0.0,0.0,93,0.00,,,0.00,weatherlink.com 1.10,2013-12-24 13:28:00,
2013-12-24 08:43:00,23.0,21.0,30.21,NE,45,0.0,1.0,92,0.00,,,0.00,weatherlink.com 1.10,2013-12-24 13:43:00,
2013-12-24 08:59:00,23.3,21.0,30.21,NE,45,0.0,0.0,92,0.00,,,0.00,weatherlink.com 1.10,2013-12-24 13:59:00,
2013-12-24 09:14:00,23.6,22.0,30.22,NNE,16,0.0,1.0,92,0.00,,,0.00,weatherlink.com 1.10,2013-12-24 14:14:00,
2013-12-24 09:29:00,23.8,22.0,30.22,NNE,23,2.0,2.0,92,0.00,,,0.00,weatherlink.com 1.10,2013-12-24 14:29:00,
2013-12-24 09:44:00,23.2,21.0,30.23,North,354,4.0,6.0,92,0.00,,,0.00,weatherlink.com 1.10,2013-12-24 14:44:00,
2013-12-24 09:59:00,22.7,21.0,30.23,NNE,30,4.0,8.0,91,0.00,,,0.00,weatherlink.com 1.10,2013-12-24 14:59:00,
2013-12-24 10:14:00,22.5,20.0,30.23,NNE,17,4.0,8.0,91,0.00,,,0.00,weatherlink.com 1.10,2013-12-24 15:14:00,
2013-12-24 10:29:00,22.3,20.0,30.24,North,360,1.0,8.0,91,0.00,,,0.00,weatherlink.com 1.10,2013-12-24 15:29:00,
2013-12-24 10:44:00,21.7,19.0,30.23,NNE,25,5.0,9.0,90,0.00,,,0.00,weatherlink.com 1.10,2013-12-24 15:44:00,
2013-12-24 10:59:00,21.6,19.0,30.23,North,6,4.0,11.0,89,0.00,,,0.00,weatherlink.com 1.10,2013-12-24 15:59:00,
2013-12-24 11:14:00,21.4,19.0,30.23,NNE,22,4.0,8.0,90,0.00,,,0.00,weatherlink.com 1.10,2013-12-24 16:14:00,
2013-12-24 11:29:00,21.3,19.0,30.23,North,356,2.0,8.0,89,0.00,,,0.00,weatherlink.com 1.10,2013-12-24 16:29:00,
2013-12-24 11:44:00,21.2,19.0,30.23,North,6,5.0,8.0,89,0.00,,,0.00,weatherlink.com 1.10,2013-12-24 16:44:00,
2013-12-24 11:59:00,21.0,19.0,30.23,NE,38,5.0,8.0,90,0.00,,,0.00,weatherlink.com 1.10,2013-12-24 16:59:00,
2013-12-24 12:14:00,20.8,18.0,30.23,NNW,345,3.0,8.0,90,0.00,,,0.00,weatherlink.com 1.10,2013-12-24 17:14:00,
2013-12-24 12:29:00,20.6,18.0,30.22,NE,39,6.0,9.0,89,0.00,,,0.00,weatherlink.com 1.10,2013-12-24 17:29:00,
2013-12-24 12:44:00,20.4,18.0,30.23,North,7,2.0,9.0,89,0.00,,,0.00,weatherlink.com 1.10,2013-12-24 17:44:00,
2013-12-24 12:59:00,20.4,18.0,30.23,North,2,3.0,8.0,89,0.00,,,0.00,weatherlink.com 1.10,2013-12-24 17:59:00,
2013-12-24 13:14:00,20.1,17.0,30.23,NE,39,3.0,8.0,89,0.00,,,0.00,weatherlink.com 1.10,2013-12-24 18:14:00,
2013-12-24 13:29:00,19.7,17.0,30.23,NNE,29,4.0,8.0,90,0.00,,,0.00,weatherlink.com 1.10,2013-12-24 18:29:00,
2013-12-24 13:44:00,19.4,17.0,30.24,North,349,5.0,8.0,90,0.00,,,0.00,weatherlink.com 1.10,2013-12-24 18:44:00,
2013-12-24 13:59:00,19.1,16.0,30.25,North,350,4.0,6.0,89,0.00,,,0.00,weatherlink.com 1.10,2013-12-24 18:59:00,
2013-12-24 14:14:00,19.1,17.0,30.25,North,352,3.0,6.0,90,0.00,,,0.00,weatherlink.com 1.10,2013-12-24 19:14:00,
2013-12-24 14:29:00,19.2,17.0,30.26,NNW,340,2.0,6.0,90,0.00,,,0.00,weatherlink.com 1.10,2013-12-24 19:29:00,
2013-12-24 14:44:00,18.8,16.0,30.26,North,353,2.0,4.0,90,0.00,,,0.00,weatherlink.com 1.10,2013-12-24 19:44:00,
2013-12-24 14:59:00,19.2,17.0,30.27,NNW,337,2.0,4.0,90,0.00,,,0.00,weatherlink.com 1.10,2013-12-24 19:59:00,
2013-12-24 15:14:00,18.5,16.0,30.27,North,349,4.0,7.0,90,0.00,,,0.00,weatherlink.com 1.10,2013-12-24 20:14:00,
2013-12-24 15:29:00,18.2,16.0,30.28,NNW,344,2.0,4.0,91,0.00,,,0.00,weatherlink.com 1.10,2013-12-24 20:29:00,
2013-12-24 15:44:00,18.1,16.0,30.29,NNW,348,3.0,4.0,91,0.00,,,0.00,weatherlink.com 1.10,2013-12-24 20:44:00,
2013-12-24 15:59:00,18.3,16.0,30.30,NW,311,2.0,8.0,89,0.00,,,0.00,weatherlink.com 1.10,2013-12-24 20:59:00,
2013-12-24 16:14:00,18.2,16.0,30.31,NW,307,4.0,8.0,90,0.00,,,0.00,weatherlink.com 1.10,2013-12-24 21:14:00,
2013-12-24 16:29:00,17.4,14.0,30.31,NW,323,10.0,14.0,87,0.00,,,0.00,weatherlink.com 1.10,2013-12-24 21:29:00,
2013-12-24 16:45:00,16.9,12.0,30.32,WNW,302,5.0,13.0,81,0.00,,,0.00,weatherlink.com 1.10,2013-12-24 21:45:00,
2013-12-24 17:00:00,16.5,12.0,30.33,WNW,293,11.0,16.0,82,0.00,,,0.00,weatherlink.com 1.10,2013-12-24 22:00:00,
2013-12-24 17:15:00,15.9,12.0,30.34,NW,309,12.0,17.0,83,0.00,,,0.00,weatherlink.com 1.10,2013-12-24 22:15:00,
2013-12-24 17:30:00,15.5,10.0,30.35,NW,309,9.0,16.0,79,0.00,,,0.00,weatherlink.com 1.10,2013-12-24 22:30:00,
2013-12-24 17:45:00,15.2,10.0,30.36,North,2,5.0,14.0,79,0.00,,,0.00,weatherlink.com 1.10,2013-12-24 22:45:00,
2013-12-24 18:00:00,14.8,11.0,30.37,WNW,302,9.0,13.0,86,0.00,,,0.00,weatherlink.com 1.10,2013-12-24 23:00:00,
2013-12-24 18:15:00,14.8,11.0,30.37,NW,306,10.0,15.0,83,0.00,,,0.00,weatherlink.com 1.10,2013-12-24 23:15:00,
2013-12-24 18:30:00,14.5,11.0,30.38,NW,317,6.0,13.0,85,0.00,,,0.00,weatherlink.com 1.10,2013-12-24 23:30:00,
2013-12-24 18:45:00,14.3,11.0,30.38,NW,316,5.0,14.0,88,0.00,,,0.00,weatherlink.com 1.10,2013-12-24 23:45:00,
2013-12-24 19:00:00,14.4,12.0,30.39,WNW,293,11.0,16.0,88,0.00,,,0.00,weatherlink.com 1.10,2013-12-25 00:00:00,
2013-12-24 19:15:00,14.3,12.0,30.39,West,276,8.0,13.0,90,0.00,,,0.00,weatherlink.com 1.10,2013-12-25 00:15:00,
2013-12-24 19:30:00,14.1,12.0,30.40,West,281,9.0,15.0,90,0.00,,,0.00,weatherlink.com 1.10,2013-12-25 00:30:00,
2013-12-24 19:35:00,9.9,5.8,30.99,West,281,6.0,10.0,83,0.00,CLR,,0.00,WeatherDisplay:10.37,2013-12-25 00:35:00,
2013-12-24 19:40:00,9.9,5.8,30.99,WNW,292,6.0,10.0,83,0.00,CLR,,0.00,WeatherDisplay:10.37,2013-12-25 00:40:00,
2013-12-24 19:45:00,13.8,11.0,30.41,WNW,299,12.0,16.0,88,0.00,,,0.00,weatherlink.com 1.10,2013-12-25 00:45:00,
2013-12-24 19:50:00,9.9,5.8,30.99,WNW,292,6.0,10.0,83,0.00,CLR,,0.00,WeatherDisplay:10.37,2013-12-25 00:50:00,
2013-12-24 19:55:00,9.9,5.8,30.99,WNW,292,6.0,10.0,83,0.00,CLR,,0.00,WeatherDisplay:10.37,2013-12-25 00:55:00,
2013-12-24 20:00:00,13.7,10.0,30.41,NW,314,4.0,19.0,86,0.00,,,0.00,weatherlink.com 1.10,2013-12-25 01:00:00,
2013-12-24 20:05:00,9.8,5.9,30.99,WNW,292,6.0,10.0,84,0.00,CLR,,0.00,WeatherDisplay:10.37,2013-12-25 01:05:00,
2013-12-24 20:10:00,9.8,5.9,30.99,WNW,292,6.0,10.0,84,0.00,CLR,,0.00,WeatherDisplay:10.37,2013-12-25 01:10:00,
2013-12-24 20:15:00,13.4,10.0,30.41,NNW,333,2.0,15.0,86,0.00,,,0.00,weatherlink.com 1.10,2013-12-25 01:15:00,
2013-12-24 20:20:00,9.8,5.9,30.99,WNW,292,6.0,10.0,84,0.00,CLR,,0.00,WeatherDisplay:10.37,2013-12-25 01:20:00,
2013-12-24 20:25:00,9.8,5.9,30.99,WNW,292,6.0,10.0,84,0.00,CLR,,0.00,WeatherDisplay:10.37,2013-12-25 01:25:00,
2013-12-24 20:30:00,13.4,9.0,30.41,NW,326,7.0,16.0,84,0.00,,,0.00,weatherlink.com 1.10,2013-12-25 01:30:00,
2013-12-24 20:35:00,9.5,6.4,31.01,WNW,292,5.0,10.0,87,0.00,CLR,,0.00,WeatherDisplay:10.37,2013-12-25 01:35:00,
2013-12-24 20:40:00,9.5,6.4,31.01,WNW,292,5.0,10.0,87,0.00,CLR,,0.00,WeatherDisplay:10.37,2013-12-25 01:40:00,
2013-12-24 20:45:00,13.7,10.0,30.42,NW,308,9.0,19.0,84,0.00,,,0.00,weatherlink.com 1.10,2013-12-25 01:45:00,
2013-12-24 20:50:00,9.5,6.4,31.01,WNW,292,5.0,10.0,87,0.00,CLR,,0.00,WeatherDisplay:10.37,2013-12-25 01:50:00,
2013-12-24 20:55:00,9.5,6.4,31.01,WNW,292,5.0,10.0,87,0.00,CLR,,0.00,WeatherDisplay:10.37,2013-12-25 01:55:00,
2013-12-24 21:00:00,13.6,10.0,30.42,NW,311,4.0,14.0,85,0.00,,,0.00,weatherlink.com 1.10,2013-12-25 02:00:00,
2013-12-24 21:05:00,9.2,5.9,31.00,WNW,292,3.0,8.0,86,0.00,CLR,,0.00,WeatherDisplay:10.37,2013-12-25 02:05:00,
2013-12-24 21:10:00,9.2,5.9,31.00,WNW,292,3.0,8.0,86,0.00,CLR,,0.00,WeatherDisplay:10.37,2013-12-25 02:10:00,
2013-12-24 21:15:00,13.6,10.0,30.43,NW,309,5.0,16.0,85,0.00,,,0.00,weatherlink.com 1.10,2013-12-25 02:15:00,
2013-12-24 21:20:00,9.2,5.9,31.00,WNW,292,3.0,8.0,86,0.00,CLR,,0.00,WeatherDisplay:10.37,2013-12-25 02:20:00,
2013-12-24 21:25:00,9.2,5.9,31.00,WNW,292,3.0,8.0,86,0.00,CLR,,0.00,WeatherDisplay:10.37,2013-12-25 02:25:00,
2013-12-24 21:30:00,13.5,10.0,30.44,NW,321,10.0,14.0,85,0.00,,,0.00,weatherlink.com 1.10,2013-12-25 02:30:00,
2013-12-24 21:45:00,13.0,9.0,30.45,NW,321,7.0,20.0,82,0.00,,,0.00,weatherlink.com 1.10,2013-12-25 02:45:00,
2013-12-24 22:00:00,12.6,8.0,30.45,NW,315,6.0,21.0,80,0.00,,,0.00,weatherlink.com 1.10,2013-12-25 03:00:00,
2013-12-24 22:15:00,12.4,8.0,30.46,NNW,338,8.0,19.0,81,0.00,,,0.00,weatherlink.com 1.10,2013-12-25 03:15:00,
2013-12-24 22:31:00,11.9,7.0,30.46,NW,307,12.0,22.0,81,0.00,,,0.00,weatherlink.com 1.10,2013-12-25 03:31:00,
2013-12-24 22:46:00,11.7,7.0,30.46,WNW,293,10.0,15.0,81,0.00,,,0.00,weatherlink.com 1.10,2013-12-25 03:46:00,
2013-12-24 23:01:00,11.5,7.0,30.47,WNW,288,8.0,19.0,81,0.00,,,0.00,weatherlink.com 1.10,2013-12-25 04:01:00,
2013-12-24 23:16:00,11.4,7.0,30.48,NW,310,12.0,19.0,81,0.00,,,0.00,weatherlink.com 1.10,2013-12-25 04:16:00,
2013-12-24 23:31:00,11.4,7.0,30.48,WNW,292,13.0,17.0,81,0.00,,,0.00,weatherlink.com 1.10,2013-12-25 04:31:00,
2013-12-24 23:46:00,11.2,6.0,30.48,WNW,302,8.0,18.0,80,0.00,,,0.00,weatherlink.com 1.10,2013-12-25 04:46:00,